Terminal Aerodrome Forecast
Issued by NWS

Home | Current Version | Previous Version | Text Only | Print | Product List | Glossary On
Versions: 1 2 3 4 5 6 7 8 9 10 11 12 13
000
FTUS45 KMSO 211140
TAFSMN
TAF
KSMN 211140Z 2112/2212 34008KT P6SM -SHSN SCT020 OVC030
     FM211800 34015G25KT P6SM VCSH SCT020 OVC040
     FM220000 31006KT P6SM OVC050
      AMD LTD TO CLD VIS AND WIND=

USA.gov is the U.S. government's official web portal to all federal, state and local government web resources and services.